createdAt,value
2023-03-20T00:01:15.226Z,22.9
2023-03-20T00:07:08.118Z,22.5
2023-03-20T00:12:47.169Z,22.3
2023-03-20T00:18:40.280Z,22.1
2023-03-20T00:24:17.136Z,22.1
2023-03-20T00:30:10.193Z,21.9
2023-03-20T00:35:47.589Z,22.1
2023-03-20T00:41:40.090Z,22.6
2023-03-20T00:47:01.888Z,22.9
2023-03-20T00:52:39.833Z,23
2023-03-20T00:58:32.536Z,23.4
2023-03-20T01:04:25.507Z,23.1
2023-03-20T01:10:17.863Z,22.7
2023-03-20T01:15:39.897Z,22.5
2023-03-20T01:21:32.465Z,22.3
2023-03-20T01:27:09.995Z,22.2
2023-03-20T01:33:02.575Z,22.1
2023-03-20T01:38:55.899Z,22.2
2023-03-20T01:44:47.651Z,22.6
2023-03-20T01:50:40.660Z,23.3
2023-03-20T01:56:16.689Z,23.1
2023-03-20T02:02:09.327Z,22.8
2023-03-20T02:07:47.139Z,22.4
2023-03-20T02:13:23.919Z,22.3
2023-03-20T02:18:45.865Z,22.1
2023-03-20T02:24:38.633Z,22.1
2023-03-20T02:30:30.806Z,22.1
2023-03-20T02:36:09.866Z,22.3
2023-03-20T02:42:03.380Z,23.1
2023-03-20T02:47:56.801Z,23.3
2023-03-20T02:53:49.834Z,22.9
2023-03-20T02:59:26.908Z,22.6
2023-03-20T03:05:04.302Z,22.4
2023-03-20T03:10:25.777Z,22.2
2023-03-20T03:16:03.787Z,22.1
2023-03-20T03:21:41.735Z,22
2023-03-20T03:27:27.160Z,22.1
2023-03-20T03:33:20.454Z,22.6
2023-03-20T03:38:57.640Z,23.3
2023-03-20T03:44:34.703Z,23.2
2023-03-20T03:50:27.345Z,22.8
2023-03-20T03:55:48.547Z,22.5
2023-03-20T04:01:26.502Z,22.4
2023-03-20T04:07:21.850Z,22.2
2023-03-20T04:12:58.133Z,22.1
2023-03-20T04:18:38.799Z,22.1
2023-03-20T04:24:16.257Z,22.3
2023-03-20T04:30:12.230Z,22.8
2023-03-20T04:36:04.958Z,22.9
2023-03-20T04:41:43.787Z,22.9
2023-03-20T04:47:20.041Z,23.4
2023-03-20T04:53:12.033Z,23.3
2023-03-20T04:58:49.009Z,22.8
2023-03-20T05:04:45.261Z,22.4
2023-03-20T05:10:37.897Z,22.3
2023-03-20T05:16:15.848Z,22.1
2023-03-20T05:22:08.034Z,22.1
2023-03-20T05:28:00.790Z,22.1
2023-03-20T05:33:54.795Z,22.4
2023-03-20T05:39:48.792Z,23.1
2023-03-20T05:45:25.870Z,23.2
2023-03-20T05:51:03.426Z,22.8
2023-03-20T05:56:58.603Z,22.4
2023-03-20T06:02:51.712Z,22.3
2023-03-20T06:08:43.991Z,22.1
2023-03-20T06:14:38.596Z,22
2023-03-20T06:20:31.660Z,21.9
2023-03-20T06:26:25.486Z,22.3
2023-03-20T06:32:18.409Z,23
2023-03-20T06:38:10.918Z,23.2
2023-03-20T06:44:17.968Z,22.8
2023-03-20T06:49:55.009Z,22.4
2023-03-20T06:55:47.183Z,22.3
2023-03-20T07:01:39.730Z,22.1
2023-03-20T07:07:32.688Z,22.1
2023-03-20T07:13:25.605Z,22.4
2023-03-20T07:19:37.992Z,23.2
2023-03-20T07:25:41.714Z,23
2023-03-20T07:31:36.427Z,22.8
2023-03-20T07:37:29.749Z,22.5
2023-03-20T07:43:23.109Z,22.8
2023-03-20T07:49:16.155Z,23.2
2023-03-20T07:55:10.804Z,22.9
2023-03-20T08:01:03.314Z,22.7
2023-03-20T08:06:58.449Z,22.7
2023-03-20T08:12:52.517Z,23.3
2023-03-20T08:19:01.621Z,23.2
2023-03-20T08:24:54.150Z,22.9
2023-03-20T08:30:43.375Z,22.7
2023-03-20T08:36:52.224Z,23.1
2023-03-20T08:42:45.372Z,23.4
2023-03-20T08:48:38.158Z,23
2023-03-20T08:54:30.248Z,22.8
2023-03-20T09:00:23.077Z,22.9
2023-03-20T09:06:33.230Z,23.4
2023-03-20T09:11:26.107Z,23.2
2023-03-20T09:17:24.035Z,22.9
2023-03-20T09:23:00.815Z,22.8
2023-03-20T09:28:53.803Z,23.2
2023-03-20T09:34:32.213Z,23.4
2023-03-20T09:40:27.343Z,23.1
2023-03-20T09:46:29.295Z,22.9
2023-03-20T09:52:38.075Z,23
2023-03-20T09:58:45.014Z,23.6
2023-03-20T10:04:24.508Z,23.3
2023-03-20T10:10:17.724Z,23.1
2023-03-20T10:16:12.487Z,22.9
2023-03-20T10:22:03.897Z,23.3
2023-03-20T10:27:42.410Z,23.5
2023-03-20T10:33:36.393Z,23.3
2023-03-20T10:39:28.930Z,23.1
2023-03-20T10:45:21.985Z,22.9
2023-03-20T10:51:00.517Z,22.8
2023-03-20T10:56:53.133Z,22.6
2023-03-20T11:02:31.251Z,22.4
2023-03-20T11:08:20.556Z,22.4
2023-03-20T11:14:15.676Z,22.3
2023-03-20T11:20:11.492Z,22.1
2023-03-20T11:26:07.030Z,22
2023-03-20T11:32:11.300Z,22
2023-03-20T11:38:16.402Z,21.9
2023-03-20T11:44:10.510Z,21.8
2023-03-20T11:50:03.273Z,21.7
2023-03-20T11:55:59.518Z,21.6
2023-03-20T12:01:53.678Z,21.6
2023-03-20T12:07:47.447Z,21.5
2023-03-20T12:13:40.134Z,21.4
2023-03-20T12:19:33.652Z,21.4
2023-03-20T12:25:26.442Z,21.3
2023-03-20T12:31:19.445Z,21.3
2023-03-20T12:37:13.204Z,21.2
2023-03-20T12:43:06.206Z,21.2
2023-03-20T12:54:24.336Z,21.1
2023-03-20T13:00:17.243Z,21.1
2023-03-20T13:05:54.637Z,21
2023-03-20T13:11:47.459Z,20.9
2023-03-20T13:17:41.593Z,20.9
2023-03-20T13:23:03.888Z,20.9
2023-03-20T13:28:59.856Z,20.9
2023-03-20T13:34:54.409Z,20.8
2023-03-20T13:40:57.665Z,20.8
2023-03-20T13:46:54.976Z,20.8
2023-03-20T13:52:49.096Z,20.7
2023-03-20T13:58:42.317Z,20.7
2023-03-20T14:04:20.374Z,20.7
2023-03-20T14:09:44.813Z,20.7
2023-03-20T14:15:07.290Z,20.6
2023-03-20T14:20:29.819Z,20.6
2023-03-20T14:25:51.919Z,20.6
2023-03-20T14:31:16.532Z,20.6
2023-03-20T14:37:10.762Z,20.6
2023-03-20T14:42:47.494Z,20.6
2023-03-20T14:48:40.111Z,20.6
2023-03-20T14:54:36.551Z,20.5
2023-03-20T15:00:25.366Z,20.5
2023-03-20T15:06:19.829Z,20.5
2023-03-20T15:12:15.130Z,20.5
2023-03-20T15:18:07.689Z,20.4
2023-03-20T15:24:02.857Z,20.4
2023-03-20T15:29:58.509Z,20.4
2023-03-20T15:35:48.580Z,20.4
2023-03-20T15:41:55.798Z,20.4
2023-03-20T15:48:11.371Z,20.4
2023-03-20T15:53:48.144Z,20.3
2023-03-20T15:59:21.661Z,20.3
2023-03-20T16:05:17.007Z,20.3
2023-03-20T16:11:10.452Z,20.3
2023-03-20T16:17:03.589Z,20.3
2023-03-20T16:22:57.156Z,20.3
2023-03-20T16:28:49.037Z,20.2
2023-03-20T16:34:43.565Z,20.2
2023-03-20T16:40:37.622Z,20.1
2023-03-20T16:46:30.441Z,20.1
2023-03-20T16:52:22.990Z,20.1
2023-03-20T16:58:00.676Z,20.1
2023-03-20T17:03:22.518Z,20
2023-03-20T17:08:59.712Z,20
2023-03-20T17:14:53.868Z,20
2023-03-20T17:20:45.628Z,19.9
2023-03-20T17:26:40.013Z,19.9
2023-03-20T17:32:34.387Z,19.9
2023-03-20T17:37:56.229Z,19.9
2023-03-20T17:43:49.325Z,19.9
2023-03-20T17:49:58.883Z,19.8
2023-03-20T17:55:38.332Z,19.8
2023-03-20T18:01:32.867Z,19.8
2023-03-20T18:07:26.772Z,19.8
2023-03-20T18:13:06.089Z,19.8
2023-03-20T18:18:59.033Z,19.7
2023-03-20T18:24:37.686Z,19.6
2023-03-20T18:30:14.292Z,19.7
2023-03-20T18:35:05.069Z,19.6
2023-03-20T18:40:27.661Z,19.6
2023-03-20T18:45:33.863Z,19.6
2023-03-20T18:50:55.743Z,19.6
2023-03-20T18:56:33.888Z,19.6
2023-03-20T19:02:28.259Z,19.5
2023-03-20T19:08:05.644Z,19.5
2023-03-20T19:13:29.066Z,19.5
2023-03-20T19:19:23.060Z,19.4
2023-03-20T19:25:29.782Z,19.4
2023-03-20T19:31:26.154Z,19.4
2023-03-20T19:38:40.228Z,19.4
2023-03-20T19:45:30.424Z,19.4
2023-03-20T19:52:03.706Z,19.4
2023-03-20T19:57:36.586Z,19.4
2023-03-20T20:04:18.293Z,19.3
2023-03-20T20:11:33.045Z,19.3
2023-03-20T20:17:51.196Z,19.4
2023-03-20T20:25:08.537Z,19.8
2023-03-20T20:31:29.745Z,20.8
2023-03-20T20:40:30.183Z,20.6
2023-03-20T20:52:41.551Z,20.9
2023-03-20T20:58:55.580Z,21.7
2023-03-20T21:05:03.898Z,21.8
2023-03-20T21:11:27.618Z,21.7
2023-03-20T21:17:30.303Z,22.3
2023-03-20T21:23:19.951Z,21.9
2023-03-20T21:29:53.279Z,21.8
2023-03-20T21:36:13.303Z,22.4
2023-03-20T21:43:16.146Z,22.2
2023-03-20T22:36:36.780Z,22.7
2023-03-20T22:49:10.312Z,23
2023-03-20T22:55:27.847Z,22.6
2023-03-20T23:01:27.151Z,22.4
2023-03-20T23:07:43.806Z,22.6
2023-03-20T23:13:39.178Z,23.1
2023-03-20T23:19:34.445Z,22.8
2023-03-20T23:25:38.576Z,22.6
2023-03-20T23:31:50.074Z,22.4
2023-03-20T23:37:59.319Z,23.1
2023-03-20T23:44:32.601Z,23
2023-03-20T23:51:25.654Z,22.7
2023-03-20T23:57:33.431Z,22.4
